KLM6767 GCXO-GCFV
Flight info
| Callsign | KLM6767 |
|---|---|
| Flight time | 0h 28m |
| Altitude | 16000 |
| Route | GDV |
| Aircraft | B738/M-SDE2E3FGHIRWXY/LB1 |
Departure
| Time | 2026-05-07 00:46 |
|---|---|
| Airport | Tenerife Norte-Ciudad de La Laguna Airport (GCXO) |
Arrival
| Time | 2026-05-07 01:14 |
|---|---|
| Airport | Fuerteventura Airport (GCFV) |
| Time | Latitude | Longitude | Altitude | Speed | Heading |
|---|---|---|---|---|---|
| 2026-05-07 00:21 | 28.48662 | -16.34626 | 2068 ft | 0 kts | 21° |
| 2026-05-07 00:21 | 28.48680 | -16.34658 | 2069 ft | 0 kts | 21° |
| 2026-05-07 00:36 | 28.48679 | -16.34659 | 2068 ft | 2 kts | 21° |
| 2026-05-07 00:36 | 28.48655 | -16.34669 | 2069 ft | 4 kts | 19° |
| 2026-05-07 00:36 | 28.48629 | -16.34678 | 2069 ft | 4 kts | 16° |
| 2026-05-07 00:37 | 28.48603 | -16.34685 | 2068 ft | 4 kts | 10° |
| 2026-05-07 00:37 | 28.48576 | -16.34688 | 2068 ft | 4 kts | 352° |
| 2026-05-07 00:37 | 28.48557 | -16.34679 | 2068 ft | 3 kts | 294° |
| 2026-05-07 00:37 | 28.48555 | -16.34676 | 2068 ft | 1 kts | 290° |
| 2026-05-07 00:39 | 28.48567 | -16.34712 | 2069 ft | 9 kts | 290° |
| 2026-05-07 00:39 | 28.48598 | -16.34808 | 2070 ft | 17 kts | 290° |
| 2026-05-07 00:40 | 28.48648 | -16.34957 | 2070 ft | 24 kts | 291° |
| 2026-05-07 00:40 | 28.48712 | -16.35149 | 2070 ft | 26 kts | 290° |
| 2026-05-07 00:40 | 28.48776 | -16.35337 | 2070 ft | 25 kts | 290° |
| 2026-05-07 00:40 | 28.48835 | -16.35513 | 2069 ft | 22 kts | 291° |
| 2026-05-07 00:41 | 28.48846 | -16.35547 | 2069 ft | 0 kts | 290° |
| 2026-05-07 00:42 | 28.48854 | -16.35570 | 2069 ft | 7 kts | 290° |
| 2026-05-07 00:43 | 28.48877 | -16.35654 | 2068 ft | 14 kts | 274° |
| 2026-05-07 00:43 | 28.48835 | -16.35753 | 2067 ft | 14 kts | 194° |
| 2026-05-07 00:43 | 28.48777 | -16.35685 | 2068 ft | 13 kts | 96° |
| 2026-05-07 00:43 | 28.48769 | -16.35653 | 2068 ft | 0 kts | 111° |
| 2026-05-07 00:45 | 28.48739 | -16.35565 | 2069 ft | 37 kts | 111° |
| 2026-05-07 00:45 | 28.48561 | -16.35035 | 2070 ft | 104 kts | 110° |
| 2026-05-07 00:45 | 28.48235 | -16.34050 | 2061 ft | 160 kts | 110° |
| 2026-05-07 00:46 | 28.47824 | -16.32826 | 2696 ft | 168 kts | 109° |
| 2026-05-07 00:46 | 28.47398 | -16.31578 | 3546 ft | 170 kts | 108° |
| 2026-05-07 00:46 | 28.46966 | -16.30294 | 4157 ft | 184 kts | 108° |
| 2026-05-07 00:46 | 28.46491 | -16.28827 | 4457 ft | 211 kts | 108° |
| 2026-05-07 00:47 | 28.45918 | -16.27186 | 4645 ft | 236 kts | 110° |
| 2026-05-07 00:47 | 28.45251 | -16.25374 | 4838 ft | 261 kts | 110° |
| 2026-05-07 00:47 | 28.44536 | -16.23437 | 5328 ft | 275 kts | 111° |
| 2026-05-07 00:47 | 28.43788 | -16.21405 | 6054 ft | 280 kts | 111° |
| 2026-05-07 00:48 | 28.43029 | -16.19350 | 6810 ft | 286 kts | 110° |
| 2026-05-07 00:48 | 28.42486 | -16.17162 | 7507 ft | 289 kts | 101° |
| 2026-05-07 00:48 | 28.42112 | -16.14912 | 8264 ft | 293 kts | 98° |
| 2026-05-07 00:48 | 28.41766 | -16.12594 | 8956 ft | 299 kts | 99° |
| 2026-05-07 00:49 | 28.41418 | -16.10252 | 9723 ft | 303 kts | 99° |
| 2026-05-07 00:49 | 28.41054 | -16.07867 | 10362 ft | 310 kts | 99° |
| 2026-05-07 00:49 | 28.40663 | -16.05368 | 10589 ft | 333 kts | 100° |
| 2026-05-07 00:49 | 28.40240 | -16.02725 | 11065 ft | 342 kts | 100° |
| 2026-05-07 00:50 | 28.39811 | -16.00094 | 11985 ft | 338 kts | 99° |
| 2026-05-07 00:50 | 28.39375 | -15.97445 | 12692 ft | 343 kts | 99° |
| 2026-05-07 00:50 | 28.38935 | -15.94796 | 13439 ft | 345 kts | 99° |
| 2026-05-07 00:50 | 28.38492 | -15.92145 | 14376 ft | 341 kts | 99° |
| 2026-05-07 00:51 | 28.38048 | -15.89495 | 15123 ft | 343 kts | 99° |
| 2026-05-07 00:51 | 28.37597 | -15.86807 | 15819 ft | 347 kts | 99° |
| 2026-05-07 00:51 | 28.37140 | -15.84094 | 16517 ft | 351 kts | 98° |
| 2026-05-07 00:51 | 28.36679 | -15.81357 | 17229 ft | 355 kts | 98° |
| 2026-05-07 00:52 | 28.36212 | -15.78585 | 17924 ft | 358 kts | 98° |
| 2026-05-07 00:52 | 28.35739 | -15.75788 | 18574 ft | 362 kts | 98° |
| 2026-05-07 00:52 | 28.35265 | -15.72987 | 19001 ft | 372 kts | 98° |
| 2026-05-07 00:52 | 28.34766 | -15.70026 | 19051 ft | 390 kts | 98° |
| 2026-05-07 00:53 | 28.34245 | -15.66940 | 19068 ft | 406 kts | 98° |
| 2026-05-07 00:53 | 28.33701 | -15.63734 | 19071 ft | 421 kts | 98° |
| 2026-05-07 00:53 | 28.33137 | -15.60417 | 19074 ft | 434 kts | 98° |
| 2026-05-07 00:53 | 28.32554 | -15.57001 | 19073 ft | 446 kts | 98° |
| 2026-05-07 00:54 | 28.31957 | -15.53510 | 19070 ft | 455 kts | 98° |
| 2026-05-07 00:54 | 28.31345 | -15.49944 | 19067 ft | 464 kts | 98° |
| 2026-05-07 00:54 | 28.30725 | -15.46336 | 19052 ft | 465 kts | 99° |
| 2026-05-07 00:54 | 28.30106 | -15.42743 | 19045 ft | 464 kts | 99° |
| 2026-05-07 00:55 | 28.29486 | -15.39149 | 19053 ft | 464 kts | 98° |
| 2026-05-07 00:55 | 28.28873 | -15.35597 | 19049 ft | 464 kts | 98° |
| 2026-05-07 00:55 | 28.28252 | -15.31999 | 19050 ft | 465 kts | 98° |
| 2026-05-07 00:55 | 28.27629 | -15.28396 | 19053 ft | 465 kts | 99° |
| 2026-05-07 00:56 | 28.27006 | -15.24791 | 19053 ft | 466 kts | 99° |
| 2026-05-07 00:56 | 28.26380 | -15.21182 | 19051 ft | 466 kts | 99° |
| 2026-05-07 00:56 | 28.25753 | -15.17573 | 19054 ft | 466 kts | 99° |
| 2026-05-07 00:56 | 28.25127 | -15.13969 | 19052 ft | 466 kts | 99° |
| 2026-05-07 00:57 | 28.24498 | -15.10359 | 19045 ft | 466 kts | 99° |
| 2026-05-07 00:57 | 28.23876 | -15.06739 | 19050 ft | 466 kts | 97° |
| 2026-05-07 00:57 | 28.23481 | -15.03101 | 19054 ft | 464 kts | 92° |
| 2026-05-07 00:57 | 28.23215 | -14.99444 | 19051 ft | 464 kts | 91° |
| 2026-05-07 00:58 | 28.22991 | -14.95832 | 19046 ft | 465 kts | 91° |
| 2026-05-07 00:58 | 28.22765 | -14.92164 | 19043 ft | 465 kts | 91° |
| 2026-05-07 00:58 | 28.22529 | -14.88514 | 19038 ft | 460 kts | 91° |
| 2026-05-07 00:58 | 28.22290 | -14.84970 | 18894 ft | 442 kts | 91° |
| 2026-05-07 00:59 | 28.21791 | -14.77976 | 16810 ft | 446 kts | 92° |
| 2026-05-07 00:59 | 28.21530 | -14.74483 | 15609 ft | 442 kts | 93° |
| 2026-05-07 00:59 | 28.21270 | -14.71081 | 14482 ft | 437 kts | 94° |
| 2026-05-07 01:00 | 28.21007 | -14.67667 | 13367 ft | 432 kts | 94° |
| 2026-05-07 01:00 | 28.20751 | -14.64361 | 12993 ft | 412 kts | 94° |
| 2026-05-07 01:00 | 28.20497 | -14.61084 | 12567 ft | 424 kts | 94° |
| 2026-05-07 01:00 | 28.20238 | -14.57737 | 12109 ft | 427 kts | 95° |
| 2026-05-07 01:01 | 28.19979 | -14.54398 | 11661 ft | 422 kts | 95° |
| 2026-05-07 01:01 | 28.19722 | -14.51108 | 11178 ft | 414 kts | 95° |
| 2026-05-07 01:01 | 28.19472 | -14.47921 | 11027 ft | 397 kts | 95° |
| 2026-05-07 01:01 | 28.19233 | -14.44876 | 10905 ft | 378 kts | 95° |
| 2026-05-07 01:02 | 28.19007 | -14.42002 | 10739 ft | 355 kts | 95° |
| 2026-05-07 01:02 | 28.18795 | -14.39304 | 10609 ft | 334 kts | 95° |
| 2026-05-07 01:02 | 28.18593 | -14.36758 | 10470 ft | 316 kts | 95° |
| 2026-05-07 01:02 | 28.18403 | -14.34348 | 10336 ft | 299 kts | 95° |
| 2026-05-07 01:03 | 28.18219 | -14.32028 | 10007 ft | 293 kts | 95° |
| 2026-05-07 01:03 | 28.18036 | -14.29739 | 9529 ft | 291 kts | 95° |
| 2026-05-07 01:03 | 28.17856 | -14.27486 | 9059 ft | 289 kts | 95° |
| 2026-05-07 01:03 | 28.17675 | -14.25233 | 8638 ft | 286 kts | 95° |
| 2026-05-07 01:04 | 28.17496 | -14.22997 | 8160 ft | 285 kts | 95° |
| 2026-05-07 01:04 | 28.17318 | -14.20777 | 7734 ft | 282 kts | 94° |
| 2026-05-07 01:04 | 28.17141 | -14.18577 | 7378 ft | 277 kts | 94° |
| 2026-05-07 01:04 | 28.16968 | -14.16428 | 7091 ft | 272 kts | 94° |
| 2026-05-07 01:05 | 28.16796 | -14.14294 | 6816 ft | 272 kts | 93° |
| 2026-05-07 01:05 | 28.16623 | -14.12164 | 6542 ft | 271 kts | 93° |
| 2026-05-07 01:05 | 28.16638 | -14.10047 | 6231 ft | 268 kts | 74° |
| 2026-05-07 01:05 | 28.17172 | -14.08042 | 5977 ft | 264 kts | 70° |
| 2026-05-07 01:06 | 28.17739 | -14.06069 | 5685 ft | 263 kts | 69° |
| 2026-05-07 01:06 | 28.18301 | -14.04106 | 5419 ft | 261 kts | 69° |
| 2026-05-07 01:06 | 28.18847 | -14.02182 | 5172 ft | 259 kts | 69° |
| 2026-05-07 01:06 | 28.19392 | -14.00247 | 4914 ft | 257 kts | 69° |
| 2026-05-07 01:07 | 28.19921 | -13.98351 | 4813 ft | 248 kts | 69° |
| 2026-05-07 01:07 | 28.20434 | -13.96509 | 4696 ft | 241 kts | 69° |
| 2026-05-07 01:07 | 28.20928 | -13.94727 | 4604 ft | 234 kts | 69° |
| 2026-05-07 01:07 | 28.21414 | -13.92976 | 4513 ft | 233 kts | 69° |
| 2026-05-07 01:08 | 28.21897 | -13.91238 | 4418 ft | 229 kts | 69° |
| 2026-05-07 01:08 | 28.22374 | -13.89521 | 4183 ft | 227 kts | 68° |
| 2026-05-07 01:08 | 28.23210 | -13.88113 | 4084 ft | 211 kts | 32° |
| 2026-05-07 01:08 | 28.24551 | -13.87564 | 3906 ft | 205 kts | 13° |
| 2026-05-07 01:09 | 28.25947 | -13.87271 | 3656 ft | 202 kts | 10° |
| 2026-05-07 01:09 | 28.27328 | -13.87045 | 3383 ft | 198 kts | 6° |
| 2026-05-07 01:09 | 28.28684 | -13.86936 | 3122 ft | 193 kts | 4° |
| 2026-05-07 01:09 | 28.29991 | -13.86882 | 2862 ft | 187 kts | 3° |
| 2026-05-07 01:10 | 28.31264 | -13.86841 | 2612 ft | 179 kts | 4° |
| 2026-05-07 01:10 | 28.32467 | -13.86802 | 2387 ft | 166 kts | 3° |
| 2026-05-07 01:10 | 28.33567 | -13.86765 | 2196 ft | 148 kts | 4° |
| 2026-05-07 01:10 | 28.34552 | -13.86729 | 1980 ft | 138 kts | 4° |
| 2026-05-07 01:11 | 28.35506 | -13.86698 | 1780 ft | 139 kts | 4° |
| 2026-05-07 01:11 | 28.36464 | -13.86667 | 1612 ft | 135 kts | 5° |
| 2026-05-07 01:11 | 28.37401 | -13.86636 | 1449 ft | 135 kts | 4° |
| 2026-05-07 01:11 | 28.38350 | -13.86603 | 1251 ft | 138 kts | 3° |
| 2026-05-07 01:12 | 28.39316 | -13.86575 | 1095 ft | 140 kts | 6° |
| 2026-05-07 01:12 | 28.40304 | -13.86540 | 898 ft | 144 kts | 3° |
| 2026-05-07 01:12 | 28.41300 | -13.86506 | 661 ft | 141 kts | 3° |
| 2026-05-07 01:12 | 28.42276 | -13.86476 | 515 ft | 141 kts | 3° |
| 2026-05-07 01:13 | 28.43270 | -13.86440 | 265 ft | 145 kts | 2° |
| 2026-05-07 01:13 | 28.44267 | -13.86409 | 69 ft | 140 kts | 2° |
| 2026-05-07 01:13 | 28.45164 | -13.86378 | 71 ft | 110 kts | 1° |
| 2026-05-07 01:13 | 28.45785 | -13.86358 | 88 ft | 68 kts | 1° |
| 2026-05-07 01:14 | 28.46129 | -13.86347 | 98 ft | 39 kts | 1° |
| 2026-05-07 01:14 | 28.46314 | -13.86348 | 103 ft | 16 kts | 338° |
| 2026-05-07 01:14 | 28.46346 | -13.86457 | 103 ft | 15 kts | 270° |
| 2026-05-07 01:14 | 28.46293 | -13.86545 | 101 ft | 14 kts | 186° |
| 2026-05-07 01:15 | 28.46188 | -13.86541 | 100 ft | 16 kts | 180° |
| 2026-05-07 01:15 | 28.46073 | -13.86542 | 97 ft | 17 kts | 180° |
| 2026-05-07 01:15 | 28.45951 | -13.86543 | 91 ft | 18 kts | 182° |
| 2026-05-07 01:15 | 28.45827 | -13.86551 | 88 ft | 18 kts | 182° |
| 2026-05-07 01:16 | 28.45706 | -13.86557 | 86 ft | 17 kts | 183° |
| 2026-05-07 01:16 | 28.45584 | -13.86564 | 82 ft | 18 kts | 183° |
| 2026-05-07 01:16 | 28.45465 | -13.86591 | 76 ft | 18 kts | 222° |
| 2026-05-07 01:16 | 28.45407 | -13.86695 | 73 ft | 10 kts | 244° |
| 2026-05-07 01:17 | 28.45387 | -13.86722 | 74 ft | 5 kts | 220° |
| 2026-05-07 01:17 | 28.45354 | -13.86741 | 74 ft | 6 kts | 205° |
| 2026-05-07 01:17 | 28.45315 | -13.86768 | 73 ft | 7 kts | 240° |
| 2026-05-07 01:17 | 28.45314 | -13.86819 | 75 ft | 0 kts | 270° |